Time;durP1;ratioP1;P1;durP2;ratioP2;P2;SDS_P1;SDS_P2;PMS_P1;PMS_P2;Temp;Humidity;BMP_temperature;BMP_pressure;BME280_temperature;BME280_humidity;BME280_pressure;Samples;Min_cycle;Max_cycle;Signal;HPM_P1;HPM_P2
2022/09/15 00:00:45;;;;;;;11.93;4.43;;;10.50;95.90;;;;;;5027528;28;20535;-73
2022/09/15 00:03:11;;;;;;;6.93;3.97;;;10.50;96.00;;;;;;5023606;28;20042;-73
2022/09/15 00:05:37;;;;;;;12.48;4.22;;;10.50;96.00;;;;;;5020365;28;20029;-73
2022/09/15 00:08:03;;;;;;;10.25;3.63;;;10.50;96.00;;;;;;5024934;28;20152;-72
2022/09/15 00:10:28;;;;;;;8.00;4.43;;;10.50;96.00;;;;;;5041841;28;20033;-72
2022/09/15 00:12:54;;;;;;;10.52;4.15;;;10.50;96.10;;;;;;5040851;28;20065;-72
2022/09/15 00:15:21;;;;;;;10.93;4.00;;;10.50;96.00;;;;;;5022370;28;20091;-72
2022/09/15 00:17:49;;;;;;;10.93;3.70;;;10.50;95.90;;;;;;5025162;28;20038;-72
2022/09/15 00:20:16;;;;;;;8.23;4.07;;;10.50;95.90;;;;;;5034344;28;20065;-72
2022/09/15 00:22:42;;;;;;;11.45;4.20;;;10.50;96.00;;;;;;5029697;28;20041;-73
2022/09/15 00:25:09;;;;;;;15.73;3.88;;;10.60;95.90;;;;;;5032832;28;20434;-72
2022/09/15 00:27:34;;;;;;;7.05;3.70;;;10.70;95.80;;;;;;5039184;28;20561;-72
2022/09/15 00:30:00;;;;;;;7.25;3.47;;;10.70;95.70;;;;;;5046264;28;20033;-73
2022/09/15 00:32:26;;;;;;;11.52;4.00;;;10.80;95.70;;;;;;5033074;28;20022;-74
2022/09/15 00:34:52;;;;;;;8.23;3.90;;;10.90;95.50;;;;;;5025500;28;20053;-73
2022/09/15 00:37:18;;;;;;;6.63;3.53;;;11.00;95.30;;;;;;5037724;28;20044;-72
2022/09/15 00:39:43;;;;;;;8.73;3.83;;;11.00;95.20;;;;;;5027222;28;20050;-72
2022/09/15 00:42:17;;;;;;;10.75;3.60;;;11.00;95.10;;;;;;5031914;28;20044;-72
2022/09/15 00:44:56;;;;;;;6.20;3.45;;;11.00;95.10;;;;;;5024045;28;20531;-73
2022/09/15 00:47:32;;;;;;;7.60;3.38;;;11.00;95.00;;;;;;5032090;28;20020;-73
2022/09/15 00:50:11;;;;;;;7.15;3.50;;;11.00;95.00;;;;;;5044487;28;20059;-74
2022/09/15 00:52:59;;;;;;;7.18;3.53;;;11.00;94.90;;;;;;5034755;28;20025;-72
2022/09/15 00:55:38;;;;;;;8.48;3.55;;;11.00;94.90;;;;;;5035781;28;20033;-73
2022/09/15 00:58:08;;;;;;;9.90;3.15;;;11.10;94.90;;;;;;5034168;28;20578;-74
2022/09/15 01:00:35;;;;;;;8.15;3.03;;;11.10;95.00;;;;;;5030832;28;20029;-72
2022/09/15 01:03:02;;;;;;;8.55;3.13;;;11.10;94.90;;;;;;5029560;28;20397;-73
2022/09/15 01:05:52;;;;;;;9.75;3.20;;;11.10;94.70;;;;;;5027567;28;20025;-72
2022/09/15 01:08:27;;;;;;;6.50;2.90;;;11.10;94.80;;;;;;5034569;28;20040;-73
2022/09/15 01:10:52;;;;;;;9.38;3.13;;;11.20;94.80;;;;;;5028765;28;20405;-72
2022/09/15 01:13:18;;;;;;;4.35;2.80;;;11.30;94.80;;;;;;5037234;28;20033;-73
2022/09/15 01:16:05;;;;;;;7.80;2.90;;;11.30;94.70;;;;;;5029368;28;20033;-72
2022/09/15 01:19:05;;;;;;;5.38;2.80;;;11.30;94.50;;;;;;5031601;28;20064;-73
2022/09/15 01:22:04;;;;;;;7.57;2.65;;;11.50;94.70;;;;;;5031487;28;20044;-72
2022/09/15 01:24:55;;;;;;;6.95;2.92;;;11.50;94.60;;;;;;5039227;28;20453;-73
2022/09/15 01:27:47;;;;;;;10.07;2.60;;;11.60;94.30;;;;;;5034909;28;20037;-73
2022/09/15 01:30:21;;;;;;;5.03;2.38;;;11.80;94.30;;;;;;5044692;28;20041;-73
2022/09/15 01:33:05;;;;;;;5.75;2.40;;;11.80;94.20;;;;;;5038800;28;20041;-72
2022/09/15 01:35:48;;;;;;;7.03;2.28;;;12.00;94.30;;;;;;5026793;28;20420;-73
2022/09/15 01:38:39;;;;;;;5.97;2.28;;;12.00;94.20;;;;;;5035144;28;20053;-72
2022/09/15 01:41:15;;;;;;;8.20;2.47;;;12.10;94.70;;;;;;5025397;28;20449;-72
2022/09/15 01:44:00;;;;;;;7.20;2.50;;;12.10;95.10;;;;;;5029530;28;20445;-73
2022/09/15 01:46:30;;;;;;;6.63;2.47;;;12.10;95.50;;;;;;5030850;28;20033;-72
2022/09/15 01:48:59;;;;;;;8.35;2.40;;;12.10;95.80;;;;;;5034352;28;20386;-73
2022/09/15 01:51:27;;;;;;;5.38;2.33;;;12.20;96.10;;;;;;5020113;28;20048;-73
2022/09/15 01:53:53;;;;;;;9.80;2.67;;;12.20;96.30;;;;;;5031352;28;20078;-73
2022/09/15 01:56:19;;;;;;;5.07;2.25;;;12.20;96.40;;;;;;5029611;28;20088;-73
2022/09/15 01:58:48;;;;;;;6.30;2.63;;;12.20;96.50;;;;;;5032467;28;20106;-74
2022/09/15 02:01:39;;;;;;;7.57;2.53;;;12.30;96.70;;;;;;5029152;28;20025;-74
2022/09/15 02:04:12;;;;;;;;;;;12.30;96.80;;;;;;5031767;28;20045;-73
2022/09/15 02:07:10;;;;;;;10.55;3.00;;;12.30;96.90;;;;;;5035004;28;20272;-73
2022/09/15 02:09:41;;;;;;;5.15;2.53;;;12.30;97.00;;;;;;5029036;28;20033;-72
2022/09/15 02:12:18;;;;;;;7.05;2.78;;;12.30;97.10;;;;;;5031715;28;20034;-73
2022/09/15 02:14:56;;;;;;;8.65;2.95;;;12.40;97.10;;;;;;5031183;28;20021;-74
2022/09/15 02:17:26;;;;;;;5.45;2.70;;;12.40;97.20;;;;;;5038373;28;20034;-73
2022/09/15 02:20:01;;;;;;;8.57;2.97;;;12.40;97.10;;;;;;5034092;28;20041;-73
2022/09/15 02:22:30;;;;;;;9.45;2.95;;;12.30;97.10;;;;;;5017334;28;20480;-72
2022/09/15 02:25:01;;;;;;;7.78;3.28;;;12.40;97.20;;;;;;5027689;28;20155;-73
2022/09/15 02:27:31;;;;;;;10.43;3.05;;;12.40;97.20;;;;;;5036225;28;20705;-73
2022/09/15 02:30:04;;;;;;;9.95;2.67;;;12.40;97.20;;;;;;5031632;28;20505;-73
2022/09/15 02:32:33;;;;;;;6.72;3.17;;;12.40;97.10;;;;;;5014330;28;20030;-73
2022/09/15 02:35:03;;;;;;;7.10;2.58;;;12.40;97.20;;;;;;5027861;28;20366;-72
2022/09/15 02:37:29;;;;;;;8.13;2.83;;;12.30;97.10;;;;;;5031062;28;20614;-72
2022/09/15 02:39:57;;;;;;;7.03;2.90;;;12.40;97.20;;;;;;5038318;28;20041;-72
2022/09/15 02:42:25;;;;;;;5.43;2.80;;;12.30;97.20;;;;;;5027336;28;20168;-73
2022/09/15 02:44:51;;;;;;;8.52;2.92;;;12.30;97.20;;;;;;5028289;28;20132;-72
2022/09/15 02:47:16;;;;;;;4.68;2.63;;;12.30;97.20;;;;;;5047991;28;20079;-72
2022/09/15 02:49:42;;;;;;;7.78;3.08;;;12.30;97.20;;;;;;5038327;28;20076;-73
2022/09/15 02:52:07;;;;;;;5.72;2.80;;;12.20;97.20;;;;;;5024240;28;20116;-73
2022/09/15 02:54:33;;;;;;;5.65;2.47;;;12.20;97.20;;;;;;5036899;28;20030;-73
2022/09/15 02:56:59;;;;;;;7.28;3.33;;;12.20;97.20;;;;;;5037387;28;20235;-73
2022/09/15 02:59:25;;;;;;;9.07;3.45;;;12.20;97.20;;;;;;5033323;28;20120;-73
2022/09/15 03:01:51;;;;;;;7.68;3.20;;;12.10;97.20;;;;;;5039233;28;20076;-72
2022/09/15 03:04:17;;;;;;;9.95;2.97;;;12.10;97.20;;;;;;5037928;28;20032;-72
2022/09/15 03:06:43;;;;;;;9.30;3.50;;;12.10;97.20;;;;;;5031141;28;20033;-73
2022/09/15 03:09:08;;;;;;;6.78;2.92;;;12.10;97.20;;;;;;5034488;28;20036;-72
2022/09/15 03:11:35;;;;;;;6.45;3.20;;;12.10;97.20;;;;;;5035237;28;20057;-72
2022/09/15 03:14:03;;;;;;;8.73;3.17;;;12.10;97.20;;;;;;5039558;28;20040;-73
2022/09/15 03:16:30;;;;;;;7.72;3.38;;;12.10;97.20;;;;;;5034845;28;20029;-73
2022/09/15 03:19:00;;;;;;;7.82;2.97;;;12.10;97.20;;;;;;5031851;28;20049;-73
2022/09/15 03:21:28;;;;;;;9.32;3.75;;;12.10;97.20;;;;;;5041762;28;20041;-72
2022/09/15 03:23:55;;;;;;;12.77;4.53;;;12.10;97.20;;;;;;5035020;28;20035;-72
2022/09/15 03:26:20;;;;;;;10.85;5.13;;;12.10;97.20;;;;;;5026038;28;20088;-72
2022/09/15 03:28:45;;;;;;;8.50;4.05;;;12.00;97.20;;;;;;5028764;28;20465;-73
2022/09/15 03:31:11;;;;;;;8.90;3.83;;;12.00;97.30;;;;;;5019947;28;20045;-74
2022/09/15 03:33:37;;;;;;;7.20;3.72;;;12.00;97.30;;;;;;5030198;28;20576;-74
2022/09/15 03:36:03;;;;;;;7.75;4.88;;;12.00;97.40;;;;;;5038839;28;20033;-75
2022/09/15 03:38:29;;;;;;;7.85;4.45;;;12.00;97.50;;;;;;5026962;28;20136;-73
2022/09/15 03:41:06;;;;;;;7.03;4.10;;;12.00;97.40;;;;;;5042176;28;20124;-73
2022/09/15 03:43:33;;;;;;;8.30;4.18;;;12.00;97.50;;;;;;5023986;28;20488;-73
2022/09/15 03:45:59;;;;;;;6.78;4.05;;;12.10;97.60;;;;;;5031554;28;20478;-72
2022/09/15 03:48:26;;;;;;;8.63;4.25;;;12.10;97.70;;;;;;5032866;28;20037;-73
2022/09/15 03:50:52;;;;;;;9.60;4.20;;;12.10;97.70;;;;;;5027756;28;20037;-73
2022/09/15 03:53:19;;;;;;;8.00;3.90;;;12.10;97.70;;;;;;5041158;28;20037;-73
2022/09/15 03:55:45;;;;;;;9.75;3.92;;;12.10;97.80;;;;;;5037641;28;20034;-73
2022/09/15 03:58:11;;;;;;;9.05;3.97;;;12.10;97.70;;;;;;5024711;28;20038;-75
2022/09/15 04:00:37;;;;;;;10.27;4.25;;;12.10;97.80;;;;;;5028357;28;20097;-73
2022/09/15 04:03:03;;;;;;;8.20;4.15;;;12.20;97.80;;;;;;5036440;28;20117;-72
2022/09/15 04:05:28;;;;;;;11.27;4.40;;;12.20;97.90;;;;;;5039269;28;20056;-72
2022/09/15 04:07:54;;;;;;;11.13;4.30;;;12.20;97.90;;;;;;5026694;28;20397;-74
2022/09/15 04:10:23;;;;;;;11.57;4.72;;;12.30;98.00;;;;;;5028163;28;20087;-72
2022/09/15 04:12:51;;;;;;;10.40;4.88;;;12.20;97.90;;;;;;5024230;28;20037;-72
2022/09/15 04:15:19;;;;;;;11.88;5.03;;;12.10;97.90;;;;;;5031900;28;20052;-73
2022/09/15 04:17:45;;;;;;;11.40;5.55;;;12.10;97.90;;;;;;5028368;28;20428;-73
2022/09/15 04:20:11;;;;;;;12.00;6.05;;;12.10;98.00;;;;;;5034479;28;20033;-73
2022/09/15 04:22:36;;;;;;;12.02;5.57;;;12.10;98.00;;;;;;5034680;28;20092;-73
2022/09/15 04:25:02;;;;;;;11.00;5.95;;;12.10;98.00;;;;;;5038719;28;20029;-73
2022/09/15 04:27:28;;;;;;;13.77;5.45;;;12.10;98.10;;;;;;5035420;28;20033;-73
2022/09/15 04:29:53;;;;;;;11.52;6.03;;;12.10;98.10;;;;;;5035245;28;20038;-73
2022/09/15 04:32:19;;;;;;;10.82;5.70;;;12.10;98.10;;;;;;5036540;28;20082;-73
2022/09/15 04:34:45;;;;;;;11.40;6.05;;;12.00;98.20;;;;;;5028576;28;20447;-72
2022/09/15 04:37:11;;;;;;;15.25;6.57;;;12.10;98.20;;;;;;5018918;28;20044;-73
2022/09/15 04:39:37;;;;;;;14.18;5.93;;;12.00;98.20;;;;;;5034986;28;20551;-73
2022/09/15 04:42:04;;;;;;;11.80;6.15;;;12.00;98.30;;;;;;5030810;28;20033;-72
2022/09/15 04:44:31;;;;;;;12.30;6.80;;;12.10;98.30;;;;;;5035043;28;20436;-72
2022/09/15 04:46:57;;;;;;;15.98;6.30;;;12.10;98.40;;;;;;5020537;28;20060;-73
2022/09/15 04:49:23;;;;;;;12.75;6.50;;;12.10;98.30;;;;;;5031361;28;20116;-72
2022/09/15 04:51:51;;;;;;;15.95;7.22;;;12.10;98.30;;;;;;5034953;28;20568;-73
2022/09/15 04:54:16;;;;;;;14.35;6.28;;;12.10;98.40;;;;;;5039961;28;20051;-72
2022/09/15 04:56:42;;;;;;;12.88;6.63;;;12.10;98.30;;;;;;5027739;28;20041;-73
2022/09/15 04:59:13;;;;;;;14.25;6.72;;;12.10;98.40;;;;;;5028499;28;20056;-72
2022/09/15 05:01:38;;;;;;;11.68;6.55;;;12.10;98.40;;;;;;5042698;28;20029;-73
2022/09/15 05:04:04;;;;;;;13.15;6.72;;;12.10;98.50;;;;;;5030750;28;20306;-73
2022/09/15 05:06:29;;;;;;;12.75;6.93;;;12.10;98.50;;;;;;5025143;28;20111;-73
2022/09/15 05:08:56;;;;;;;11.02;6.88;;;12.10;98.50;;;;;;5027092;28;20440;-73
2022/09/15 05:11:23;;;;;;;15.18;6.50;;;12.10;98.40;;;;;;5032867;28;20028;-73
2022/09/15 05:13:49;;;;;;;12.30;7.00;;;12.10;98.50;;;;;;5025622;28;20042;-73
2022/09/15 05:16:17;;;;;;;18.20;7.10;;;12.10;98.40;;;;;;5024506;28;20041;-73
2022/09/15 05:18:44;;;;;;;12.35;6.75;;;12.10;98.40;;;;;;5026203;28;20033;-73
2022/09/15 05:21:12;;;;;;;10.65;6.15;;;12.10;98.40;;;;;;5024059;28;20041;-73
2022/09/15 05:23:38;;;;;;;11.63;6.35;;;12.10;98.40;;;;;;5040677;28;20489;-72
2022/09/15 05:26:07;;;;;;;16.83;6.60;;;12.10;98.50;;;;;;5020298;28;20029;-71
2022/09/15 05:28:33;;;;;;;13.90;6.35;;;12.20;98.40;;;;;;5026632;28;20091;-72
2022/09/15 05:30:59;;;;;;;15.90;6.10;;;12.10;98.40;;;;;;5014250;28;20041;-73
2022/09/15 05:33:24;;;;;;;12.80;6.20;;;12.10;98.40;;;;;;5035830;28;20033;-72
2022/09/15 05:35:54;;;;;;;10.73;5.55;;;12.20;98.40;;;;;;5044147;28;20025;-73
2022/09/15 05:38:20;;;;;;;18.42;5.97;;;12.20;98.40;;;;;;5020671;28;20053;-71
2022/09/15 05:40:45;;;;;;;13.30;5.47;;;12.20;98.40;;;;;;5034388;28;20099;-72
2022/09/15 05:43:11;;;;;;;10.90;4.93;;;12.20;98.30;;;;;;5039487;28;20040;-72
2022/09/15 05:45:36;;;;;;;11.00;4.53;;;12.20;98.30;;;;;;5016763;28;20041;-70
2022/09/15 05:48:03;;;;;;;10.05;4.45;;;12.10;98.30;;;;;;5037966;28;20034;-72
2022/09/15 05:50:32;;;;;;;9.60;3.88;;;12.10;98.20;;;;;;5027520;28;20050;-72
2022/09/15 05:52:57;;;;;;;8.10;4.28;;;12.10;98.20;;;;;;5033784;28;20120;-72
2022/09/15 05:55:23;;;;;;;7.55;3.83;;;12.10;98.10;;;;;;5027000;28;20100;-72
2022/09/15 05:57:48;;;;;;;10.68;4.07;;;12.10;98.10;;;;;;5025061;28;20034;-72
2022/09/15 06:00:14;;;;;;;9.95;4.22;;;12.10;98.00;;;;;;5024168;28;20049;-73
2022/09/15 06:02:40;;;;;;;10.30;3.95;;;12.10;98.10;;;;;;5032880;28;20586;-73
2022/09/15 06:05:05;;;;;;;10.90;4.90;;;12.10;98.10;;;;;;5040593;28;20031;-73
2022/09/15 06:07:31;;;;;;;8.55;4.05;;;12.20;98.10;;;;;;5038786;28;20040;-73
2022/09/15 06:09:56;;;;;;;10.85;4.50;;;12.30;98.20;;;;;;5024874;28;20391;-73
2022/09/15 06:12:22;;;;;;;8.43;4.10;;;12.40;98.20;;;;;;5030747;28;20119;-73
2022/09/15 06:14:49;;;;;;;10.27;3.97;;;12.60;98.10;;;;;;5031437;28;20022;-73
2022/09/15 06:17:18;;;;;;;12.00;4.20;;;12.60;98.10;;;;;;5037557;28;20049;-72
2022/09/15 06:19:44;;;;;;;10.88;4.20;;;12.80;98.00;;;;;;5019016;28;20052;-73
2022/09/15 06:22:10;;;;;;;11.68;3.67;;;13.00;97.90;;;;;;5023930;28;20026;-73
2022/09/15 06:24:35;;;;;;;10.20;3.75;;;13.00;97.70;;;;;;5032951;28;20034;-73
2022/09/15 06:27:01;;;;;;;10.75;3.60;;;13.10;97.50;;;;;;5040042;28;20076;-73
2022/09/15 06:29:27;;;;;;;6.38;3.03;;;13.20;97.30;;;;;;5030170;28;20033;-72
2022/09/15 06:31:53;;;;;;;6.75;2.78;;;13.20;97.10;;;;;;5026868;28;20092;-73
2022/09/15 06:34:19;;;;;;;11.25;3.13;;;13.30;96.70;;;;;;5035956;28;20113;-73
2022/09/15 06:36:45;;;;;;;11.43;2.47;;;13.30;96.50;;;;;;5034766;28;20024;-74
2022/09/15 06:39:11;;;;;;;6.63;2.40;;;13.30;96.20;;;;;;5034886;28;20049;-73
2022/09/15 06:41:36;;;;;;;8.27;2.22;;;13.40;96.00;;;;;;5030815;28;20710;-73
2022/09/15 06:44:02;;;;;;;7.40;1.83;;;13.40;95.40;;;;;;5029356;28;20494;-73
2022/09/15 06:46:28;;;;;;;5.97;1.80;;;13.40;95.30;;;;;;5030875;28;20112;-73
2022/09/15 06:48:54;;;;;;;6.45;1.42;;;13.40;94.50;;;;;;5034668;28;20030;-73
2022/09/15 06:51:27;;;;;;;5.43;1.33;;;13.40;94.10;;;;;;5039220;28;20320;-73
2022/09/15 06:53:53;;;;;;;8.63;1.40;;;13.50;93.80;;;;;;5033485;28;20037;-73
2022/09/15 06:56:21;;;;;;;5.18;1.08;;;13.50;93.70;;;;;;5027948;28;20091;-72
2022/09/15 06:58:49;;;;;;;4.25;1.35;;;13.60;93.30;;;;;;5030015;28;20608;-73
2022/09/15 07:01:21;;;;;;;7.40;1.48;;;13.70;93.10;;;;;;5035357;28;20041;-70
2022/09/15 07:03:46;;;;;;;5.72;1.30;;;13.90;92.10;;;;;;5035568;28;20405;-71
2022/09/15 07:06:12;;;;;;;7.65;1.10;;;14.00;91.60;;;;;;5036626;28;20053;-71
2022/09/15 07:08:38;;;;;;;4.53;1.15;;;14.00;90.90;;;;;;5040899;28;20064;-72
2022/09/15 07:11:04;;;;;;;2.70;0.90;;;14.00;90.60;;;;;;5038447;28;20033;-70
2022/09/15 07:13:30;;;;;;;2.33;0.90;;;14.00;90.10;;;;;;5046094;28;20370;-70
2022/09/15 07:15:58;;;;;;;4.10;1.25;;;14.00;89.90;;;;;;5033792;28;20029;-70
2022/09/15 07:18:24;;;;;;;6.57;0.90;;;14.00;89.80;;;;;;5035115;28;20049;-70
2022/09/15 07:20:50;;;;;;;6.10;0.80;;;14.00;89.40;;;;;;5026310;28;20057;-71
2022/09/15 07:23:16;;;;;;;6.15;1.30;;;14.00;89.20;;;;;;5025442;28;20128;-70
2022/09/15 07:25:44;;;;;;;3.38;0.93;;;14.10;88.70;;;;;;5033749;28;20025;-70
2022/09/15 07:28:13;;;;;;;4.00;0.82;;;14.30;89.00;;;;;;5033077;28;20052;-71
2022/09/15 07:30:39;;;;;;;2.28;0.80;;;14.50;88.90;;;;;;5029788;28;20143;-70
2022/09/15 07:33:05;;;;;;;6.63;1.00;;;14.60;88.30;;;;;;5039875;28;20471;-71
2022/09/15 07:35:31;;;;;;;5.60;1.77;;;14.70;88.10;;;;;;5038933;28;20038;-71
2022/09/15 07:37:56;;;;;;;4.25;1.00;;;14.70;87.90;;;;;;5023098;28;20509;-71
2022/09/15 07:40:22;;;;;;;5.47;1.25;;;14.50;87.90;;;;;;5022904;28;20482;-72
2022/09/15 07:42:47;;;;;;;7.45;1.25;;;14.50;88.20;;;;;;5038997;28;20037;-71
2022/09/15 07:45:13;;;;;;;5.72;0.95;;;14.30;88.50;;;;;;5025560;28;20493;-70
2022/09/15 07:47:38;;;;;;;8.27;1.20;;;14.40;88.70;;;;;;5039426;28;20048;-70
2022/09/15 07:50:05;;;;;;;4.65;0.82;;;14.50;88.80;;;;;;5035392;28;20054;-70
2022/09/15 07:52:31;;;;;;;4.32;1.00;;;14.60;88.40;;;;;;5036177;28;20025;-70
2022/09/15 07:54:56;;;;;;;4.82;0.90;;;14.60;87.80;;;;;;5030993;28;20501;-71
2022/09/15 07:57:22;;;;;;;4.53;1.00;;;14.60;85.90;;;;;;5026398;28;20030;-71
2022/09/15 07:59:48;;;;;;;4.45;1.05;;;14.80;86.00;;;;;;5026663;28;20459;-73
2022/09/15 08:02:18;;;;;;;6.43;1.02;;;14.90;85.50;;;;;;5033611;28;20045;-73
2022/09/15 08:04:43;;;;;;;6.23;1.30;;;15.00;85.50;;;;;;5035449;28;20025;-73
2022/09/15 08:07:10;;;;;;;7.25;1.17;;;15.20;85.00;;;;;;5025072;28;20063;-73
2022/09/15 08:09:36;;;;;;;5.55;0.68;;;15.40;84.70;;;;;;5041600;28;20029;-73
2022/09/15 08:12:03;;;;;;;6.40;0.90;;;15.50;84.50;;;;;;5030234;28;20028;-73
2022/09/15 08:14:30;;;;;;;6.18;1.38;;;15.50;83.50;;;;;;5020663;28;20409;-73
2022/09/15 08:16:59;;;;;;;4.20;0.77;;;15.50;83.50;;;;;;5030699;28;20113;-73
2022/09/15 08:19:26;;;;;;;4.00;0.73;;;15.40;83.00;;;;;;5031761;28;20029;-73
2022/09/15 08:21:51;;;;;;;4.88;0.90;;;15.20;82.90;;;;;;5030249;28;20126;-72
2022/09/15 08:24:16;;;;;;;4.50;0.93;;;15.00;84.80;;;;;;5027928;28;20061;-73
2022/09/15 08:26:42;;;;;;;10.00;1.17;;;14.80;86.50;;;;;;5030245;28;20040;-73
2022/09/15 08:29:08;;;;;;;5.75;1.20;;;14.60;86.80;;;;;;5031871;28;20615;-71
2022/09/15 08:31:33;;;;;;;8.15;0.85;;;14.70;87.30;;;;;;5027718;28;20067;-71
2022/09/15 08:34:02;;;;;;;6.05;1.08;;;14.70;87.20;;;;;;5026335;28;20033;-72
2022/09/15 08:36:28;;;;;;;3.00;1.13;;;14.70;86.60;;;;;;5034857;28;20029;-71
2022/09/15 08:38:54;;;;;;;5.15;0.85;;;14.90;86.60;;;;;;5025746;28;20206;-72
2022/09/15 08:41:23;;;;;;;9.07;1.00;;;15.00;86.90;;;;;;5028312;28;20068;-72
2022/09/15 08:44:07;;;;;;;4.95;0.60;;;14.90;86.60;;;;;;5026973;28;20084;-72
2022/09/15 08:46:41;;;;;;;3.72;0.70;;;14.80;86.50;;;;;;5030344;28;20033;-72
2022/09/15 08:49:15;;;;;;;2.65;0.80;;;14.70;85.20;;;;;;5023269;28;20048;-72
2022/09/15 08:51:48;;;;;;;3.70;0.73;;;14.80;85.00;;;;;;5022286;28;20029;-72
2022/09/15 08:54:19;;;;;;;2.80;0.70;;;14.90;84.10;;;;;;5029692;28;20367;-71
2022/09/15 08:56:46;;;;;;;2.92;0.70;;;15.00;83.90;;;;;;5029073;28;20029;-72
2022/09/15 08:59:17;;;;;;;4.28;0.70;;;15.10;83.10;;;;;;5028607;28;20033;-71
2022/09/15 09:02:10;;;;;;;2.67;0.60;;;15.40;81.90;;;;;;5024443;28;20041;-72
2022/09/15 09:05:01;;;;;;;3.22;0.70;;;15.60;81.40;;;;;;5020154;28;20108;-71
2022/09/15 09:07:48;;;;;;;1.95;0.68;;;15.80;80.80;;;;;;5024854;28;20082;-72
2022/09/15 09:10:40;;;;;;;4.30;0.73;;;16.00;80.50;;;;;;5044269;28;20187;-72
2022/09/15 09:13:14;;;;;;;2.80;0.60;;;16.20;79.80;;;;;;5030143;28;20033;-72
2022/09/15 09:15:46;;;;;;;1.55;0.47;;;16.40;79.60;;;;;;5029401;28;20045;-72
2022/09/15 09:18:25;;;;;;;4.40;0.73;;;16.30;77.40;;;;;;5028190;28;20036;-72
2022/09/15 09:21:10;;;;;;;3.78;0.70;;;16.30;77.90;;;;;;5026126;28;20119;-72
2022/09/15 09:23:43;;;;;;;4.72;0.95;;;16.00;78.00;;;;;;5019359;28;20346;-73
2022/09/15 09:26:11;;;;;;;3.13;0.77;;;15.90;78.60;;;;;;5032440;28;20029;-71
2022/09/15 09:28:46;;;;;;;4.15;0.57;;;16.10;78.80;;;;;;5020745;28;20029;-73
2022/09/15 09:31:18;;;;;;;2.53;0.57;;;16.30;77.70;;;;;;5028136;28;20060;-72
2022/09/15 09:34:16;;;;;;;4.53;0.80;;;16.40;78.00;;;;;;5027218;28;20045;-73
2022/09/15 09:36:41;;;;;;;2.50;0.80;;;16.30;78.70;;;;;;5020286;28;20030;-73
2022/09/15 09:39:12;;;;;;;2.45;0.73;;;16.40;79.10;;;;;;5028669;28;20500;-72
2022/09/15 09:41:40;;;;;;;5.57;0.80;;;16.60;78.40;;;;;;5031850;28;20033;-72
2022/09/15 09:44:11;;;;;;;4.18;0.88;;;16.80;77.20;;;;;;5030946;28;20026;-72
2022/09/15 09:46:37;;;;;;;5.45;1.17;;;16.80;76.00;;;;;;5040974;28;20100;-72
2022/09/15 09:49:19;;;;;;;3.40;1.13;;;17.20;76.60;;;;;;5041047;28;20489;-72
2022/09/15 09:51:51;;;;;;;6.30;0.70;;;17.50;75.40;;;;;;5031401;28;20041;-72
2022/09/15 09:54:19;;;;;;;3.80;0.63;;;17.60;73.40;;;;;;5034426;28;20072;-72
2022/09/15 09:56:49;;;;;;;2.58;0.68;;;17.50;73.90;;;;;;5025102;28;20133;-72
2022/09/15 09:59:40;;;;;;;7.50;0.88;;;17.50;72.80;;;;;;5045096;28;20045;-72
2022/09/15 10:02:18;;;;;;;5.05;0.80;;;17.80;72.80;;;;;;5028474;28;20048;-72
2022/09/15 10:04:50;;;;;;;4.25;0.95;;;17.70;70.80;;;;;;5047009;28;20036;-72
2022/09/15 10:07:18;;;;;;;7.47;0.80;;;17.20;72.40;;;;;;5032660;28;20372;-72
2022/09/15 10:09:56;;;;;;;2.28;0.60;;;17.60;72.10;;;;;;5035653;28;20048;-72
2022/09/15 10:12:40;;;;;;;5.13;0.90;;;18.10;70.50;;;;;;5031109;28;20120;-72
2022/09/15 10:15:18;;;;;;;2.35;0.50;;;18.20;69.50;;;;;;5026930;28;20022;-72
2022/09/15 10:17:45;;;;;;;3.20;0.68;;;18.50;69.70;;;;;;5034995;28;20033;-72
2022/09/15 10:20:23;;;;;;;3.75;0.75;;;18.90;66.60;;;;;;5034566;28;20470;-72
2022/09/15 10:22:49;;;;;;;3.17;0.75;;;18.70;67.30;;;;;;5035070;28;20033;-72
2022/09/15 10:25:20;;;;;;;3.80;0.90;;;18.40;69.50;;;;;;5042578;28;20196;-71
2022/09/15 10:28:07;;;;;;;4.28;0.90;;;18.20;69.00;;;;;;5033361;28;20034;-71
2022/09/15 10:30:36;;;;;;;5.70;0.80;;;18.10;69.90;;;;;;5022213;28;20029;-71
2022/09/15 10:33:23;;;;;;;4.95;0.93;;;18.20;69.10;;;;;;5034573;28;20029;-72
2022/09/15 10:35:49;;;;;;;5.22;0.63;;;18.00;69.60;;;;;;5034220;28;20028;-71
2022/09/15 10:38:44;;;;;;;3.65;0.75;;;17.60;70.40;;;;;;5032266;28;20127;-71
2022/09/15 10:41:23;;;;;;;5.55;1.02;;;17.20;75.90;;;;;;5020433;28;20042;-72
2022/09/15 10:44:01;;;;;;;9.10;1.30;;;15.80;83.70;;;;;;5023749;28;20044;-72
2022/09/15 10:46:36;;;;;;;3.30;0.82;;;15.00;89.20;;;;;;5029489;28;20469;-72
2022/09/15 10:49:31;;;;;;;3.55;0.75;;;14.10;90.70;;;;;;5031480;28;20045;-72
2022/09/15 10:52:34;;;;;;;4.78;0.63;;;13.10;91.10;;;;;;5028244;28;20111;-72
2022/09/15 10:55:24;;;;;;;1.40;0.30;;;13.20;92.30;;;;;;5030294;28;20069;-73
2022/09/15 10:58:13;;;;;;;1.38;0.47;;;13.40;92.20;;;;;;5029353;28;20037;-73
2022/09/15 11:00:44;;;;;;;1.08;0.45;;;13.80;93.10;;;;;;5028669;28;20408;-73
2022/09/15 11:03:28;;;;;;;2.35;0.60;;;14.30;92.10;;;;;;5032100;28;20443;-73
2022/09/15 11:06:13;;;;;;;3.75;0.75;;;14.80;91.70;;;;;;5034740;28;20045;-74
2022/09/15 11:08:50;;;;;;;4.63;0.90;;;15.30;91.20;;;;;;5049339;28;20186;-74
2022/09/15 11:11:32;;;;;;;4.22;1.05;;;15.60;90.60;;;;;;5033044;28;20087;-74
2022/09/15 11:14:16;;;;;;;3.83;1.00;;;16.00;89.50;;;;;;5034549;28;20021;-74
2022/09/15 11:16:42;;;;;;;4.57;1.23;;;16.30;88.80;;;;;;5032770;28;20036;-74
2022/09/15 11:19:49;;;;;;;4.90;0.88;;;16.40;87.40;;;;;;5031722;28;20514;-74
2022/09/15 11:22:20;;;;;;;4.47;1.13;;;16.70;87.30;;;;;;5027726;28;20041;-74
2022/09/15 11:25:04;;;;;;;5.45;1.00;;;17.10;84.00;;;;;;5041593;28;20025;-74
2022/09/15 11:27:41;;;;;;;4.80;0.95;;;16.90;83.20;;;;;;5045599;28;20440;-73
2022/09/15 11:30:24;;;;;;;3.80;0.70;;;17.10;82.90;;;;;;5024049;28;20036;-73
2022/09/15 11:33:14;;;;;;;4.45;0.90;;;17.50;81.00;;;;;;5027680;28;20449;-73
2022/09/15 11:35:55;;;;;;;2.50;0.98;;;17.00;78.90;;;;;;5031572;28;20040;-73
2022/09/15 11:38:30;;;;;;;2.10;0.60;;;16.80;79.40;;;;;;5023460;28;20046;-73
2022/09/15 11:41:12;;;;;;;3.47;0.68;;;16.50;80.20;;;;;;5033398;28;20027;-72
2022/09/15 11:43:52;;;;;;;5.72;0.90;;;16.40;79.50;;;;;;5033495;28;20421;-72
2022/09/15 11:46:25;;;;;;;4.68;0.60;;;16.30;80.90;;;;;;5023502;28;20034;-73
2022/09/15 11:48:59;;;;;;;6.47;1.00;;;16.30;81.30;;;;;;5034025;28;20925;-72
2022/09/15 11:51:25;;;;;;;5.28;0.88;;;16.20;81.80;;;;;;5035303;28;20040;-75
2022/09/15 11:54:08;;;;;;;3.45;0.65;;;16.10;81.10;;;;;;5030710;28;20061;-72
2022/09/15 11:56:44;;;;;;;2.35;0.65;;;15.90;78.90;;;;;;5029630;28;20362;-73
2022/09/15 11:59:40;;;;;;;4.63;0.70;;;15.70;81.40;;;;;;5028279;28;20833;-73
2022/09/15 12:02:29;;;;;;;4.47;0.90;;;15.60;82.60;;;;;;5026147;28;20026;-72
2022/09/15 12:04:57;;;;;;;3.90;1.00;;;15.40;83.20;;;;;;5029858;28;20481;-73
2022/09/15 12:07:29;;;;;;;3.00;0.90;;;15.30;85.10;;;;;;5029704;28;20533;-73
2022/09/15 12:10:03;;;;;;;1.40;0.57;;;14.80;84.80;;;;;;5029631;28;20461;-73
2022/09/15 12:12:29;;;;;;;2.97;0.95;;;14.30;85.20;;;;;;5045312;28;20152;-73
2022/09/15 12:14:59;;;;;;;1.73;0.60;;;14.30;87.80;;;;;;5093686;22;20154;-89
2022/09/15 12:17:40;;;;;;;2.93;0.70;;;14.40;88.30;;;;;;5028566;28;20040;-87
2022/09/15 12:20:27;;;;;;;1.95;0.70;;;14.40;87.60;;;;;;5055963;28;20339;-90
2022/09/15 12:23:17;;;;;;;2.92;0.65;;;14.50;87.00;;;;;;5051607;23;20049;-72
2022/09/15 12:26:17;;;;;;;4.13;0.80;;;14.60;85.50;;;;;;5043575;28;20457;-72
2022/09/15 12:28:45;;;;;;;4.05;0.70;;;14.60;84.40;;;;;;5049140;28;20083;-73
2022/09/15 12:31:23;;;;;;;4.10;0.77;;;14.90;85.40;;;;;;5049657;28;20087;-74
2022/09/15 12:33:59;;;;;;;4.00;0.73;;;15.40;83.60;;;;;;5046034;28;20145;-73
2022/09/15 12:36:45;;;;;;;2.88;0.50;;;15.50;82.50;;;;;;5042259;28;20457;-74
2022/09/15 12:39:24;;;;;;;2.38;0.60;;;16.00;81.80;;;;;;5035013;28;20066;-73
2022/09/15 12:41:58;;;;;;;1.08;0.52;;;16.70;79.20;;;;;;5044747;28;20511;-73
2022/09/15 12:44:32;;;;;;;2.10;0.60;;;17.20;76.40;;;;;;5046858;28;20028;-74
2022/09/15 12:46:59;;;;;;;2.10;0.70;;;17.60;72.30;;;;;;5034192;28;20488;-76
2022/09/15 12:49:43;;;;;;;3.28;0.60;;;17.90;70.70;;;;;;5035080;28;20048;-74
2022/09/15 12:52:10;;;;;;;3.92;0.65;;;18.10;70.50;;;;;;5046879;28;20031;-74
2022/09/15 12:54:40;;;;;;;5.85;0.60;;;18.20;68.50;;;;;;5049533;28;20457;-73
2022/09/15 12:57:15;;;;;;;3.45;0.70;;;18.30;65.90;;;;;;5049623;28;20076;-73
2022/09/15 12:59:41;;;;;;;2.08;0.50;;;18.60;64.80;;;;;;5049072;28;20045;-73
2022/09/15 13:02:46;;;;;;;3.97;0.55;;;19.20;64.20;;;;;;5047774;28;20435;-73
2022/09/15 13:05:13;;;;;;;5.00;0.88;;;18.90;63.90;;;;;;5038738;28;20045;-74
2022/09/15 13:07:54;;;;;;;4.53;0.80;;;19.50;65.70;;;;;;5033161;28;20459;-74